Time;durP1;ratioP1;P1;durP2;ratioP2;P2;SDS_P1;SDS_P2;PMS_P1;PMS_P2;Temp;Humidity;BMP_temperature;BMP_pressure;BME280_temperature;BME280_humidity;BME280_pressure;Samples;Min_cycle;Max_cycle;Signal;HPM_P1;HPM_P2
2020/12/27 00:00:10;;;;;;;;;;;8.10;80.90;;;;;;2596976;22;19926;-72
2020/12/27 00:01:13;;;;;;;;;;;8.10;81.10;;;;;;2596656;22;19982;-72
2020/12/27 00:02:14;;;;;;;;;;;8.10;81.10;;;;;;2596385;22;19927;-70
2020/12/27 00:03:16;;;;;;;;;;;8.20;81.00;;;;;;2597338;22;19919;-71
2020/12/27 00:04:17;;;;;;;;;;;8.20;81.30;;;;;;2596864;22;20218;-71
2020/12/27 00:05:19;;;;;;;;;;;8.30;80.70;;;;;;2596957;22;19927;-71
2020/12/27 00:06:26;;;;;;;;;;;8.30;80.30;;;;;;2596498;22;19919;-71
2020/12/27 00:07:27;;;;;;;;;;;8.10;80.40;;;;;;2597336;22;19926;-71
2020/12/27 00:08:29;;;;;;;;;;;8.10;80.70;;;;;;2596722;22;19919;-71
2020/12/27 00:09:30;;;;;;;;;;;8.20;81.20;;;;;;2596974;22;19926;-71
2020/12/27 00:10:32;;;;;;;;;;;8.10;80.70;;;;;;2596758;22;19920;-72
2020/12/27 00:11:33;;;;;;;;;;;7.90;81.30;;;;;;2599185;22;19919;-71
2020/12/27 00:12:37;;;;;;;;;;;8.00;81.40;;;;;;2600103;22;19919;-71
2020/12/27 00:13:41;;;;;;;;;;;7.90;81.90;;;;;;2600119;22;20416;-71
2020/12/27 00:14:44;;;;;;;;;;;8.00;81.90;;;;;;2597041;22;20244;-70
2020/12/27 00:15:45;;;;;;;;;;;7.90;81.50;;;;;;2600106;22;19919;-70
2020/12/27 00:16:47;;;;;;;;;;;8.00;81.90;;;;;;2596945;22;19919;-71
2020/12/27 00:17:49;;;;;;;;;;;8.10;81.50;;;;;;2596405;22;19927;-71
2020/12/27 00:18:51;;;;;;;;;;;8.20;81.20;;;;;;2596032;22;19923;-71
2020/12/27 00:19:53;;;;;;;;;;;8.20;81.20;;;;;;2596654;22;19927;-71
2020/12/27 00:20:54;;;;;;;;;;;8.20;80.80;;;;;;2596297;22;19920;-71
2020/12/27 00:21:56;;;;;;;;;;;8.30;80.60;;;;;;2598788;22;19919;-71
2020/12/27 00:22:57;;;;;;;;;;;8.20;80.80;;;;;;2600734;22;19926;-71
2020/12/27 00:23:59;;;;;;;;;;;8.10;80.90;;;;;;2599760;22;19919;-71
2020/12/27 00:25:01;;;;;;;;;;;8.20;81.00;;;;;;2599849;22;19930;-74
2020/12/27 00:26:08;;;;;;;;;;;8.10;81.20;;;;;;2600433;22;19941;-74
2020/12/27 00:27:10;;;;;;;;;;;7.90;81.50;;;;;;2597201;22;19920;-70
2020/12/27 00:28:12;;;;;;;;;;;7.90;82.20;;;;;;2596446;22;19926;-71
2020/12/27 00:29:14;;;;;;;;;;;7.90;82.00;;;;;;2596460;22;19920;-71
2020/12/27 00:30:16;;;;;;;;;;;8.00;81.80;;;;;;2597186;22;19919;-71
2020/12/27 00:31:18;;;;;;;;;;;8.00;81.60;;;;;;2596513;22;19939;-71
2020/12/27 00:32:19;;;;;;;;;;;8.00;81.90;;;;;;2596633;22;19935;-70
2020/12/27 00:33:25;;;;;;;;;;;8.00;81.80;;;;;;2596423;22;20343;-71
2020/12/27 00:34:26;;;;;;;;;;;8.00;82.30;;;;;;2596380;22;19919;-70
2020/12/27 00:35:28;;;;;;;;;;;8.10;82.20;;;;;;2596074;22;19919;-71
2020/12/27 00:36:29;;;;;;;;;;;8.10;82.10;;;;;;2596476;22;20256;-70
2020/12/27 00:37:31;;;;;;;;;;;8.20;81.80;;;;;;2596447;22;20064;-71
2020/12/27 00:38:32;;;;;;;;;;;8.20;81.70;;;;;;2596601;22;19919;-72
2020/12/27 00:39:34;;;;;;;;;;;8.20;82.10;;;;;;2596502;22;19919;-71
2020/12/27 00:40:35;;;;;;;;;;;8.20;81.90;;;;;;2596175;22;20341;-71
2020/12/27 00:41:37;;;;;;;;;;;8.20;81.90;;;;;;2596430;22;19942;-70
2020/12/27 00:42:38;;;;;;;;;;;8.00;81.90;;;;;;2596452;22;19942;-71
2020/12/27 00:43:39;;;;;;;;;;;7.90;82.30;;;;;;2596607;22;19923;-71
2020/12/27 00:44:41;;;;;;;;;;;7.90;83.00;;;;;;2583100;23;19920;-71
2020/12/27 00:45:43;;;;;;;;;;;7.80;83.20;;;;;;2570581;23;20281;-71
2020/12/27 00:46:49;;;;;;;;;;;7.80;83.30;;;;;;2583768;22;19920;-71
2020/12/27 00:47:51;;;;;;;;;;;7.90;83.50;;;;;;2596792;22;19982;-71
2020/12/27 00:48:53;;;;;;;;;;;8.00;83.70;;;;;;2585003;23;19919;-71
2020/12/27 00:49:54;;;;;;;;;;;8.00;83.40;;;;;;2586247;22;19967;-70
2020/12/27 00:50:56;;;;;;;;;;;7.90;83.50;;;;;;2597915;22;19920;-71
2020/12/27 00:51:57;;;;;;;;;;;8.00;83.40;;;;;;2596518;22;19919;-71
2020/12/27 00:52:58;;;;;;;;;;;8.00;83.10;;;;;;2599525;22;19927;-74
2020/12/27 00:54:00;;;;;;;;;;;7.90;83.20;;;;;;2600466;22;20250;-71
2020/12/27 00:55:01;;;;;;;;;;;8.00;83.10;;;;;;2586187;23;19962;-71
2020/12/27 00:56:03;;;;;;;;;;;8.10;83.00;;;;;;2586404;22;19920;-72
2020/12/27 00:57:04;;;;;;;;;;;8.20;82.80;;;;;;2598882;22;19923;-71
2020/12/27 00:58:05;;;;;;;;;;;8.20;82.30;;;;;;2599594;22;19919;-72
2020/12/27 00:59:07;;;;;;;;;;;8.20;82.10;;;;;;2600641;22;19919;-71
2020/12/27 01:00:08;;;;;;;;;;;8.00;82.80;;;;;;2600294;22;19919;-72
2020/12/27 01:01:11;;;;;;;;;;;8.00;83.20;;;;;;2599845;22;19942;-74
2020/12/27 01:02:13;;;;;;;;;;;8.00;82.90;;;;;;2599198;22;19919;-71
2020/12/27 01:03:14;;;;;;;;;;;7.90;83.90;;;;;;2599040;22;19920;-73
2020/12/27 01:04:16;;;;;;;;;;;8.00;83.60;;;;;;2599012;22;19925;-72
2020/12/27 01:05:17;;;;;;;;;;;8.00;83.30;;;;;;2599537;22;19919;-71
2020/12/27 01:06:22;;;;;;;;;;;8.10;83.30;;;;;;2599157;22;19926;-73
2020/12/27 01:07:24;;;;;;;;;;;8.10;83.30;;;;;;2599680;22;19926;-72
2020/12/27 01:08:27;;;;;;;;;;;8.00;83.50;;;;;;2601273;22;19993;-71
2020/12/27 01:09:28;;;;;;;;;;;8.00;83.80;;;;;;2600860;22;19919;-71
2020/12/27 01:10:31;;;;;;;;;;;7.90;84.10;;;;;;2600433;22;19919;-71
2020/12/27 01:11:33;;;;;;;;;;;7.90;84.50;;;;;;2599367;22;19938;-71
2020/12/27 01:12:35;;;;;;;;;;;7.90;84.90;;;;;;2599964;22;19920;-70
2020/12/27 01:13:38;;;;;;;;;;;7.90;85.70;;;;;;2600325;22;20371;-70
2020/12/27 01:14:41;;;;;;;;;;;7.90;85.60;;;;;;2600550;22;19923;-71
2020/12/27 01:15:46;;;;;;;;;;;7.80;86.00;;;;;;2600648;22;19927;-75
2020/12/27 01:16:51;;;;;;;;;;;7.90;86.80;;;;;;2600535;22;19930;-71
2020/12/27 01:17:55;;;;;;;;;;;7.80;86.20;;;;;;2599480;22;19941;-71
2020/12/27 01:18:57;;;;;;;;;;;7.90;86.70;;;;;;2600430;22;19919;-71
2020/12/27 01:19:58;;;;;;;;;;;7.80;87.00;;;;;;2600853;22;19926;-75
2020/12/27 01:21:02;;;;;;;;;;;7.80;87.10;;;;;;2600953;22;19920;-75
2020/12/27 01:22:06;;;;;;;;;;;7.70;87.80;;;;;;2599300;22;19920;-72
2020/12/27 01:23:07;;;;;;;;;;;7.70;87.90;;;;;;2598909;22;19919;-71
2020/12/27 01:24:11;;;;;;;;;;;7.90;87.10;;;;;;2596596;22;20071;-71
2020/12/27 01:25:12;;;;;;;;;;;8.00;87.00;;;;;;2596279;22;20324;-70
2020/12/27 01:26:14;;;;;;;;;;;8.10;86.10;;;;;;2596301;22;19919;-70
2020/12/27 01:27:15;;;;;;;;;;;8.10;85.80;;;;;;2596412;22;19919;-71
2020/12/27 01:28:17;;;;;;;;;;;8.00;86.10;;;;;;2596214;22;19919;-70
2020/12/27 01:29:18;;;;;;;;;;;8.00;86.10;;;;;;2597051;22;19926;-71
2020/12/27 01:30:19;;;;;;;;;;;7.90;86.30;;;;;;2597107;22;20229;-73
2020/12/27 01:31:21;;;;;;;;;;;8.00;86.20;;;;;;2597206;22;20234;-73
2020/12/27 01:32:23;;;;;;;;;;;8.00;86.20;;;;;;2596829;22;19920;-74
2020/12/27 01:33:25;;;;;;;;;;;7.90;86.20;;;;;;2597619;22;19919;-70
2020/12/27 01:34:26;;;;;;;;;;;8.00;86.20;;;;;;2597160;22;19926;-71
2020/12/27 01:35:28;;;;;;;;;;;8.00;85.90;;;;;;2597159;22;19926;-71
2020/12/27 01:36:30;;;;;;;;;;;8.10;85.80;;;;;;2598057;22;19927;-70
2020/12/27 01:37:32;;;;;;;;;;;8.20;85.30;;;;;;2597651;22;19919;-73
2020/12/27 01:38:33;;;;;;;;;;;8.20;85.00;;;;;;2598646;22;20244;-71
2020/12/27 01:39:35;;;;;;;;;;;8.30;84.80;;;;;;2598553;22;20237;-71
2020/12/27 01:40:36;;;;;;;;;;;8.20;84.90;;;;;;2598393;22;19926;-71
2020/12/27 01:41:38;;;;;;;;;;;8.10;85.40;;;;;;2598411;22;19919;-70
2020/12/27 01:42:39;;;;;;;;;;;8.10;85.70;;;;;;2599082;22;19919;-71
2020/12/27 01:43:40;;;;;;;;;;;8.20;85.30;;;;;;2598151;22;19927;-71
2020/12/27 01:44:42;;;;;;;;;;;8.20;85.30;;;;;;2599431;22;19919;-71
2020/12/27 01:45:43;;;;;;;;;;;8.10;85.70;;;;;;2599335;22;19919;-71
2020/12/27 01:46:46;;;;;;;;;;;8.10;85.60;;;;;;2599342;22;19919;-74
2020/12/27 01:47:50;;;;;;;;;;;8.20;85.90;;;;;;2598893;22;19920;-72
2020/12/27 01:48:51;;;;;;;;;;;8.10;85.70;;;;;;2599432;22;19927;-70
2020/12/27 01:49:53;;;;;;;;;;;8.20;85.90;;;;;;2598851;22;20152;-72
2020/12/27 01:50:54;;;;;;;;;;;8.10;86.00;;;;;;2598524;22;19919;-72
2020/12/27 01:51:56;;;;;;;;;;;8.10;85.70;;;;;;2598614;22;19930;-72
2020/12/27 01:53:00;;;;;;;;;;;8.20;85.50;;;;;;2599058;22;19919;-71
2020/12/27 01:54:02;;;;;;;;;;;8.20;85.50;;;;;;2598953;22;19919;-71
2020/12/27 01:55:04;;;;;;;;;;;8.30;84.90;;;;;;2598837;22;20384;-73
2020/12/27 01:56:08;;;;;;;;;;;8.30;84.80;;;;;;2598689;22;20345;-71
2020/12/27 01:57:12;;;;;;;;;;;8.30;84.50;;;;;;2598945;22;19919;-71
2020/12/27 01:58:14;;;;;;;;;;;8.40;84.40;;;;;;2598946;22;20371;-73
2020/12/27 01:59:17;;;;;;;;;;;8.40;84.40;;;;;;2597986;22;19919;-76
2020/12/27 02:00:18;;;;;;;;;;;8.30;84.40;;;;;;2598814;22;19920;-76
2020/12/27 02:01:20;;;;;;;;;;;8.30;84.80;;;;;;2598492;22;19935;-71
2020/12/27 02:02:21;;;;;;;;;;;8.30;84.80;;;;;;2599241;22;20355;-71
2020/12/27 02:03:24;;;;;;;;;;;8.20;84.80;;;;;;2599079;22;19930;-71
2020/12/27 02:04:25;;;;;;;;;;;8.30;85.00;;;;;;2599089;22;19926;-73
2020/12/27 02:05:27;;;;;;;;;;;8.40;84.50;;;;;;2599012;22;20205;-73
2020/12/27 02:06:28;;;;;;;;;;;8.50;84.20;;;;;;2599060;22;19950;-72
2020/12/27 02:07:30;;;;;;;;;;;8.40;84.10;;;;;;2598476;22;19919;-74
2020/12/27 02:08:31;;;;;;;;;;;8.30;84.20;;;;;;2598748;22;19927;-72
2020/12/27 02:09:35;;;;;;;;;;;8.50;83.90;;;;;;2598602;22;19927;-72
2020/12/27 02:10:36;;;;;;;;;;;8.40;84.00;;;;;;2598744;22;20252;-71
2020/12/27 02:11:41;;;;;;;;;;;8.50;83.60;;;;;;2598601;22;19946;-71
2020/12/27 02:12:42;;;;;;;;;;;8.50;83.70;;;;;;2598383;22;20271;-71
2020/12/27 02:13:50;;;;;;;;;;;8.50;83.70;;;;;;2598151;22;19931;-71
2020/12/27 02:14:53;;;;;;;;;;;8.50;83.90;;;;;;2598184;22;19926;-78
2020/12/27 02:15:54;;;;;;;;;;;8.40;84.00;;;;;;2596153;22;19926;-71
2020/12/27 02:16:56;;;;;;;;;;;8.40;83.90;;;;;;2595962;22;19919;-74
2020/12/27 02:17:57;;;;;;;;;;;8.30;84.10;;;;;;2596286;22;19919;-71
2020/12/27 02:19:01;;;;;;;;;;;8.40;84.20;;;;;;2595820;22;20268;-71
2020/12/27 02:20:04;;;;;;;;;;;8.30;84.40;;;;;;2596090;22;20336;-74
2020/12/27 02:21:05;;;;;;;;;;;8.30;84.50;;;;;;2596313;22;19919;-71
2020/12/27 02:22:07;;;;;;;;;;;8.40;84.40;;;;;;2595920;22;19919;-71
2020/12/27 02:23:10;;;;;;;;;;;8.40;84.50;;;;;;2596500;22;19926;-71
2020/12/27 02:24:12;;;;;;;;;;;8.30;84.50;;;;;;2595980;22;20241;-71
2020/12/27 02:25:14;;;;;;;;;;;8.20;84.80;;;;;;2596047;22;20256;-70
2020/12/27 02:26:15;;;;;;;;;;;8.30;84.80;;;;;;2596000;22;20398;-71
2020/12/27 02:27:16;;;;;;;;;;;8.40;84.60;;;;;;2596186;22;19919;-74
2020/12/27 02:28:22;;;;;;;;;;;8.40;84.40;;;;;;2582503;23;19920;-73
2020/12/27 02:29:23;;;;;;;;;;;8.40;84.10;;;;;;2571079;23;19927;-72
2020/12/27 02:30:25;;;;;;;;;;;8.50;84.00;;;;;;2583317;22;19947;-71
2020/12/27 02:31:28;;;;;;;;;;;8.40;83.70;;;;;;2598277;22;19926;-71
2020/12/27 02:32:29;;;;;;;;;;;8.40;84.00;;;;;;2597798;22;20256;-71
2020/12/27 02:33:31;;;;;;;;;;;8.50;83.90;;;;;;2596613;22;19930;-71
2020/12/27 02:34:40;;;;;;;;;;;8.50;83.80;;;;;;2596393;22;19930;-71
2020/12/27 02:35:42;;;;;;;;;;;8.40;84.00;;;;;;2582854;23;19920;-71
2020/12/27 02:36:43;;;;;;;;;;;8.40;84.00;;;;;;2582437;22;19927;-72
2020/12/27 02:37:46;;;;;;;;;;;8.40;84.00;;;;;;2596405;22;19942;-71
2020/12/27 02:38:48;;;;;;;;;;;8.50;83.90;;;;;;2595810;22;19990;-71
2020/12/27 02:39:52;;;;;;;;;;;8.40;83.90;;;;;;2596053;22;19955;-71
2020/12/27 02:40:54;;;;;;;;;;;8.40;84.10;;;;;;2595710;22;19926;-72
2020/12/27 02:41:55;;;;;;;;;;;8.40;84.30;;;;;;2596056;22;19919;-72
2020/12/27 02:42:57;;;;;;;;;;;8.40;84.30;;;;;;2595896;22;19930;-71
2020/12/27 02:43:58;;;;;;;;;;;8.40;84.40;;;;;;2595924;22;19950;-70
2020/12/27 02:45:21;;;;;;;;;;;8.40;84.70;;;;;;2595864;22;19926;-71
2020/12/27 02:46:23;;;;;;;;;;;8.50;84.70;;;;;;2595425;22;19919;-71
2020/12/27 02:47:24;;;;;;;;;;;8.40;87.30;;;;;;2596001;22;19920;-71
2020/12/27 02:48:25;;;;;;;;;;;8.30;87.20;;;;;;2596395;22;19919;-71
2020/12/27 02:49:27;;;;;;;;;;;8.40;86.00;;;;;;2596502;22;19919;-70
2020/12/27 02:50:28;;;;;;;;;;;8.40;85.60;;;;;;2596126;22;19926;-71
2020/12/27 02:51:29;;;;;;;;;;;8.50;85.10;;;;;;2596440;22;19930;-71
2020/12/27 02:52:31;;;;;;;;;;;8.40;84.70;;;;;;2596795;22;19919;-72
2020/12/27 02:53:32;;;;;;;;;;;8.40;84.50;;;;;;2596389;22;19934;-72
2020/12/27 02:54:34;;;;;;;;;;;8.40;84.80;;;;;;2596718;22;19919;-72
2020/12/27 02:55:36;;;;;;;;;;;8.40;84.80;;;;;;2583379;23;19970;-72
2020/12/27 02:56:37;;;;;;;;;;;8.40;84.60;;;;;;2583642;22;19919;-71
2020/12/27 02:57:39;;;;;;;;;;;8.30;84.70;;;;;;2597146;22;20379;-72
2020/12/27 02:58:40;;;;;;;;;;;8.50;84.70;;;;;;2597653;22;19934;-71
2020/12/27 02:59:42;;;;;;;;;;;8.50;84.50;;;;;;2596850;22;19927;-71
2020/12/27 03:00:43;;;;;;;;;;;8.30;84.50;;;;;;2597050;22;20341;-71
2020/12/27 03:01:45;;;;;;;;;;;8.40;85.20;;;;;;2583924;23;19970;-71
2020/12/27 03:02:46;;;;;;;;;;;8.50;85.00;;;;;;2583837;22;19919;-72
2020/12/27 03:03:48;;;;;;;;;;;8.60;84.40;;;;;;2597393;22;19926;-72
2020/12/27 03:05:02;;;;;;;;;;;8.60;84.00;;;;;;2597856;22;19987;-73
2020/12/27 03:06:03;;;;;;;;;;;8.70;83.60;;;;;;2597378;22;19919;-71
2020/12/27 03:07:05;;;;;;;;;;;8.70;83.40;;;;;;2598073;22;19919;-72
2020/12/27 03:08:06;;;;;;;;;;;8.70;83.50;;;;;;2597539;22;20272;-71
2020/12/27 03:09:07;;;;;;;;;;;8.60;83.50;;;;;;2597635;22;19919;-72
2020/12/27 03:10:09;;;;;;;;;;;8.60;83.60;;;;;;2597748;22;19920;-72
2020/12/27 03:11:11;;;;;;;;;;;8.50;83.90;;;;;;2597562;22;19924;-71
2020/12/27 03:12:12;;;;;;;;;;;8.40;84.00;;;;;;2598075;22;19919;-72
2020/12/27 03:13:14;;;;;;;;;;;8.50;84.20;;;;;;2597487;22;20355;-76
2020/12/27 03:14:15;;;;;;;;;;;8.60;83.90;;;;;;2597583;22;19926;-72
2020/12/27 03:15:17;;;;;;;;;;;8.70;83.70;;;;;;2596715;22;20307;-72
2020/12/27 03:16:19;;;;;;;;;;;8.70;83.60;;;;;;2597201;22;19965;-72
2020/12/27 03:17:21;;;;;;;;;;;8.70;83.60;;;;;;2597260;22;19920;-71
2020/12/27 03:18:23;;;;;;;;;;;8.60;83.60;;;;;;2597382;22;20355;-74
2020/12/27 03:19:24;;;;;;;;;;;8.60;84.20;;;;;;2597431;22;19927;-73
2020/12/27 03:20:26;;;;;;;;;;;8.60;84.10;;;;;;2597483;22;19919;-72
2020/12/27 03:21:27;;;;;;;;;;;8.60;84.20;;;;;;2597409;22;19919;-73
2020/12/27 03:22:28;;;;;;;;;;;8.50;85.30;;;;;;2597446;22;20033;-72
2020/12/27 03:23:30;;;;;;;;;;;8.50;85.30;;;;;;2584564;23;19931;-71
2020/12/27 03:24:31;;;;;;;;;;;8.50;85.10;;;;;;2573147;23;19920;-72
2020/12/27 03:25:33;;;;;;;;;;;8.50;84.90;;;;;;2585186;22;19923;-71
2020/12/27 03:26:35;;;;;;;;;;;8.50;84.80;;;;;;2598303;22;19930;-72
2020/12/27 03:27:37;;;;;;;;;;;8.60;84.70;;;;;;2585413;23;19920;-72
2020/12/27 03:28:38;;;;;;;;;;;8.70;83.90;;;;;;2584810;22;19919;-72
2020/12/27 03:29:39;;;;;;;;;;;8.70;83.90;;;;;;2598503;22;19926;-76
2020/12/27 03:30:41;;;;;;;;;;;8.60;83.90;;;;;;2597671;22;19923;-71
2020/12/27 03:31:42;;;;;;;;;;;8.80;83.60;;;;;;2597981;22;19919;-71
2020/12/27 03:32:44;;;;;;;;;;;8.80;83.60;;;;;;2597885;22;19923;-72
2020/12/27 03:33:46;;;;;;;;;;;8.70;83.50;;;;;;2597180;22;19942;-72
2020/12/27 03:34:47;;;;;;;;;;;8.80;83.70;;;;;;2597558;22;19927;-72
2020/12/27 03:35:48;;;;;;;;;;;8.60;83.80;;;;;;2597851;22;19920;-72
2020/12/27 03:36:51;;;;;;;;;;;8.60;84.10;;;;;;2598802;22;19994;-71
2020/12/27 03:37:53;;;;;;;;;;;8.50;84.30;;;;;;2598024;22;19925;-70
2020/12/27 03:38:55;;;;;;;;;;;8.60;84.20;;;;;;2597380;22;19919;-74
2020/12/27 03:39:56;;;;;;;;;;;8.60;84.40;;;;;;2596614;22;19919;-71
2020/12/27 03:40:58;;;;;;;;;;;8.60;84.30;;;;;;2597727;22;19919;-71
2020/12/27 03:42:00;;;;;;;;;;;8.50;84.30;;;;;;2596920;22;19942;-72
2020/12/27 03:43:01;;;;;;;;;;;8.60;84.30;;;;;;2597254;22;19919;-72
2020/12/27 03:44:03;;;;;;;;;;;8.50;84.70;;;;;;2597192;22;19919;-72
2020/12/27 03:45:04;;;;;;;;;;;8.60;84.50;;;;;;2596802;22;19919;-71
2020/12/27 03:46:06;;;;;;;;;;;8.60;84.60;;;;;;2597530;22;19926;-71
2020/12/27 03:47:07;;;;;;;;;;;8.50;84.70;;;;;;2596605;22;19926;-71
2020/12/27 03:48:08;;;;;;;;;;;8.50;85.30;;;;;;2597525;22;19919;-73
2020/12/27 03:49:10;;;;;;;;;;;8.60;85.00;;;;;;2597263;22;20359;-72
2020/12/27 03:50:11;;;;;;;;;;;8.50;85.20;;;;;;2596723;22;20217;-72
2020/12/27 03:51:13;;;;;;;;;;;8.50;85.40;;;;;;2597137;22;19926;-72
2020/12/27 03:52:14;;;;;;;;;;;8.40;85.70;;;;;;2597338;22;20233;-72
2020/12/27 03:53:16;;;;;;;;;;;8.60;85.70;;;;;;2597309;22;19926;-71
2020/12/27 03:54:17;;;;;;;;;;;8.50;85.50;;;;;;2597445;22;19920;-72
2020/12/27 03:55:19;;;;;;;;;;;8.60;85.60;;;;;;2596829;22;20356;-71
2020/12/27 03:56:21;;;;;;;;;;;8.60;85.10;;;;;;2597644;22;19926;-72
2020/12/27 03:57:23;;;;;;;;;;;8.60;85.30;;;;;;2597750;22;19919;-71
2020/12/27 03:58:25;;;;;;;;;;;8.70;85.20;;;;;;2597749;22;19930;-75
2020/12/27 03:59:27;;;;;;;;;;;8.70;85.10;;;;;;2596799;22;20321;-71
2020/12/27 04:00:30;;;;;;;;;;;8.60;84.80;;;;;;2597604;22;19919;-72
2020/12/27 04:01:32;;;;;;;;;;;8.70;85.10;;;;;;2597951;22;19919;-72
2020/12/27 04:02:34;;;;;;;;;;;8.70;85.00;;;;;;2598321;22;19919;-72
2020/12/27 04:03:35;;;;;;;;;;;8.70;84.80;;;;;;2599860;22;19919;-72
2020/12/27 04:04:38;;;;;;;;;;;8.70;84.80;;;;;;2599210;22;19927;-72
2020/12/27 04:05:39;;;;;;;;;;;8.60;85.00;;;;;;2599004;22;19942;-71
2020/12/27 04:06:41;;;;;;;;;;;8.70;84.90;;;;;;2598030;22;19930;-71
2020/12/27 04:07:42;;;;;;;;;;;8.60;84.70;;;;;;2598792;22;19920;-73
2020/12/27 04:08:49;;;;;;;;;;;8.60;84.70;;;;;;2598036;22;19919;-72
2020/12/27 04:09:51;;;;;;;;;;;8.60;84.70;;;;;;2598178;22;19965;-72
2020/12/27 04:10:52;;;;;;;;;;;8.60;84.60;;;;;;2598823;22;19933;-72
2020/12/27 04:11:54;;;;;;;;;;;8.70;84.40;;;;;;2598426;22;19920;-73
2020/12/27 04:12:56;;;;;;;;;;;8.80;84.10;;;;;;2597794;22;19919;-72
2020/12/27 04:13:58;;;;;;;;;;;8.80;83.80;;;;;;2598445;22;19938;-73
2020/12/27 04:14:59;;;;;;;;;;;8.90;83.60;;;;;;2598954;22;19919;-72
2020/12/27 04:16:01;;;;;;;;;;;9.00;83.10;;;;;;2597902;22;19930;-71
2020/12/27 04:17:02;;;;;;;;;;;9.00;83.00;;;;;;2596501;22;19919;-71
2020/12/27 04:18:03;;;;;;;;;;;8.80;83.00;;;;;;2597169;22;19926;-71
2020/12/27 04:19:05;;;;;;;;;;;8.80;83.80;;;;;;2596632;22;19919;-71
2020/12/27 04:20:06;;;;;;;;;;;8.90;83.80;;;;;;2596739;22;19942;-71
2020/12/27 04:21:12;;;;;;;;;;;8.90;83.80;;;;;;2596499;22;20391;-72
2020/12/27 04:22:13;;;;;;;;;;;8.80;83.60;;;;;;2596582;22;19919;-71
2020/12/27 04:23:15;;;;;;;;;;;8.80;83.30;;;;;;2583426;23;20007;-73
2020/12/27 04:24:16;;;;;;;;;;;8.80;83.50;;;;;;2583552;22;19942;-72
2020/12/27 04:25:18;;;;;;;;;;;8.90;83.50;;;;;;2597168;22;19926;-72
2020/12/27 04:26:19;;;;;;;;;;;8.90;83.40;;;;;;2583166;23;19979;-72
2020/12/27 04:27:21;;;;;;;;;;;8.80;83.90;;;;;;2583346;22;19926;-71
2020/12/27 04:28:23;;;;;;;;;;;8.80;83.90;;;;;;2596778;22;19919;-72
2020/12/27 04:29:24;;;;;;;;;;;8.80;83.90;;;;;;2596647;22;19919;-71
2020/12/27 04:30:26;;;;;;;;;;;8.80;83.90;;;;;;2597028;22;19926;-72
2020/12/27 04:31:28;;;;;;;;;;;8.90;83.70;;;;;;2597124;22;20333;-72
2020/12/27 04:32:31;;;;;;;;;;;8.80;83.50;;;;;;2597857;22;19930;-71
2020/12/27 04:33:33;;;;;;;;;;;8.80;83.70;;;;;;2597759;22;19942;-70
2020/12/27 04:34:34;;;;;;;;;;;8.80;83.60;;;;;;2597123;22;19927;-71
2020/12/27 04:35:35;;;;;;;;;;;8.80;83.70;;;;;;2597848;22;19930;-72
2020/12/27 04:36:37;;;;;;;;;;;8.70;83.80;;;;;;2598255;22;20344;-71
2020/12/27 04:37:38;;;;;;;;;;;8.70;84.20;;;;;;2584236;23;19927;-71
2020/12/27 04:38:40;;;;;;;;;;;8.70;84.80;;;;;;2584196;22;19926;-71
2020/12/27 04:39:42;;;;;;;;;;;8.70;84.40;;;;;;2597641;22;19919;-71
2020/12/27 04:40:43;;;;;;;;;;;8.80;84.40;;;;;;2597920;22;19930;-71
2020/12/27 04:41:45;;;;;;;;;;;8.80;84.00;;;;;;2597400;22;20248;-72
2020/12/27 04:42:49;;;;;;;;;;;8.80;83.80;;;;;;2598213;22;19939;-72
2020/12/27 04:43:51;;;;;;;;;;;8.80;84.00;;;;;;2597232;22;19919;-72
2020/12/27 04:44:55;;;;;;;;;;;8.80;84.00;;;;;;2597315;22;19919;-72
2020/12/27 04:45:58;;;;;;;;;;;8.90;83.90;;;;;;2597543;22;19931;-75
2020/12/27 04:47:00;;;;;;;;;;;8.90;83.70;;;;;;2597536;22;19920;-72
2020/12/27 04:48:01;;;;;;;;;;;9.00;83.40;;;;;;2597721;22;19930;-72
2020/12/27 04:49:03;;;;;;;;;;;8.90;83.10;;;;;;2584410;23;19927;-72
2020/12/27 04:50:04;;;;;;;;;;;8.80;83.60;;;;;;2584534;22;20330;-72
2020/12/27 04:51:07;;;;;;;;;;;8.80;83.70;;;;;;2597568;22;19920;-71
2020/12/27 04:52:10;;;;;;;;;;;8.80;84.20;;;;;;2597750;22;19919;-71
2020/12/27 04:53:12;;;;;;;;;;;8.80;84.30;;;;;;2597489;22;20098;-72
2020/12/27 04:54:13;;;;;;;;;;;8.80;84.40;;;;;;2597619;22;19926;-72
2020/12/27 04:55:15;;;;;;;;;;;8.60;84.70;;;;;;2597182;22;20041;-72
2020/12/27 04:56:19;;;;;;;;;;;8.70;84.90;;;;;;2597617;22;19919;-71
2020/12/27 04:57:20;;;;;;;;;;;8.60;84.70;;;;;;2598814;22;19943;-75
2020/12/27 04:58:22;;;;;;;;;;;8.50;84.60;;;;;;2600542;22;19919;-75
2020/12/27 04:59:25;;;;;;;;;;;8.60;84.80;;;;;;2600658;22;19919;-72
2020/12/27 05:00:27;;;;;;;;;;;8.80;84.20;;;;;;2600241;22;19926;-78
2020/12/27 05:01:29;;;;;;;;;;;8.90;83.90;;;;;;2587890;23;19931;-72
2020/12/27 05:02:30;;;;;;;;;;;8.80;83.30;;;;;;2586839;22;20303;-73
2020/12/27 05:03:31;;;;;;;;;;;8.80;83.50;;;;;;2599099;22;20337;-71
2020/12/27 05:04:33;;;;;;;;;;;8.80;83.50;;;;;;2600066;22;19934;-72
2020/12/27 05:05:35;;;;;;;;;;;8.80;83.60;;;;;;2598709;22;19920;-74
2020/12/27 05:06:36;;;;;;;;;;;8.70;84.00;;;;;;2596712;22;19926;-75
2020/12/27 05:07:39;;;;;;;;;;;8.60;84.10;;;;;;2596535;22;20336;-74
2020/12/27 05:08:42;;;;;;;;;;;8.70;84.20;;;;;;2596854;22;19930;-73
2020/12/27 05:09:44;;;;;;;;;;;8.80;84.00;;;;;;2597136;22;19943;-76
2020/12/27 05:10:46;;;;;;;;;;;8.70;83.90;;;;;;2596629;22;19919;-77
2020/12/27 05:11:48;;;;;;;;;;;8.70;84.00;;;;;;2596500;22;19998;-74
2020/12/27 05:12:49;;;;;;;;;;;8.80;83.90;;;;;;2596109;22;20357;-73
2020/12/27 05:13:51;;;;;;;;;;;8.90;83.70;;;;;;2596219;22;19954;-75
2020/12/27 05:14:53;;;;;;;;;;;8.90;83.60;;;;;;2595765;22;20008;-74
2020/12/27 05:15:55;;;;;;;;;;;8.80;83.60;;;;;;2595766;22;19926;-74
2020/12/27 05:16:57;;;;;;;;;;;8.80;83.60;;;;;;2596145;22;19920;-74
2020/12/27 05:17:58;;;;;;;;;;;8.90;83.70;;;;;;2595858;22;19950;-73
2020/12/27 05:18:59;;;;;;;;;;;8.80;83.50;;;;;;2582766;23;19919;-73
2020/12/27 05:20:08;;;;;;;;;;;8.70;83.80;;;;;;2582875;22;19959;-73
2020/12/27 05:21:09;;;;;;;;;;;8.70;84.30;;;;;;2596081;22;19943;-75
2020/12/27 05:22:11;;;;;;;;;;;8.80;84.40;;;;;;2596087;22;19923;-74
2020/12/27 05:23:12;;;;;;;;;;;8.70;84.20;;;;;;2595714;22;19919;-74
2020/12/27 05:24:16;;;;;;;;;;;8.70;84.50;;;;;;2596494;22;20328;-74
2020/12/27 05:25:17;;;;;;;;;;;8.80;84.50;;;;;;2596289;22;19923;-74
2020/12/27 05:26:27;;;;;;;;;;;8.80;84.60;;;;;;2597061;22;19919;-74
2020/12/27 05:27:29;;;;;;;;;;;8.80;84.70;;;;;;2598301;22;20181;-75
2020/12/27 05:28:31;;;;;;;;;;;8.80;84.90;;;;;;2598250;22;19919;-75
2020/12/27 05:29:33;;;;;;;;;;;8.80;85.10;;;;;;2597684;22;19919;-74
2020/12/27 05:30:36;;;;;;;;;;;8.80;85.30;;;;;;2598202;22;19926;-73
2020/12/27 05:31:38;;;;;;;;;;;8.80;85.00;;;;;;2584449;23;19927;-74
2020/12/27 05:32:44;;;;;;;;;;;8.90;84.90;;;;;;2585435;22;19920;-75
2020/12/27 05:33:47;;;;;;;;;;;8.80;85.10;;;;;;2596755;22;19923;-75
2020/12/27 05:34:48;;;;;;;;;;;8.90;84.90;;;;;;2596879;22;19926;-74
2020/12/27 05:35:59;;;;;;;;;;;9.00;84.80;;;;;;2597826;22;20090;-74
2020/12/27 05:37:03;;;;;;;;;;;9.10;84.80;;;;;;2599075;22;19929;-74
2020/12/27 05:38:05;;;;;;;;;;;9.00;85.10;;;;;;2599690;22;19926;-76
2020/12/27 05:39:06;;;;;;;;;;;9.00;85.40;;;;;;2599183;22;19930;-74
2020/12/27 05:40:08;;;;;;;;;;;9.00;85.30;;;;;;2598937;22;19926;-74
2020/12/27 05:41:09;;;;;;;;;;;9.10;85.10;;;;;;2597739;22;19919;-74
2020/12/27 05:42:10;;;;;;;;;;;9.10;84.80;;;;;;2597115;22;19927;-73
2020/12/27 05:43:16;;;;;;;;;;;9.10;85.00;;;;;;2597871;22;19919;-74
2020/12/27 05:44:19;;;;;;;;;;;9.10;85.00;;;;;;2599007;22;19966;-74
2020/12/27 05:45:20;;;;;;;;;;;8.90;85.10;;;;;;2599478;22;20372;-74
2020/12/27 05:46:23;;;;;;;;;;;8.80;86.20;;;;;;2599050;22;19919;-74
2020/12/27 05:47:25;;;;;;;;;;;8.90;86.50;;;;;;2599059;22;19931;-74
2020/12/27 05:48:26;;;;;;;;;;;8.90;86.50;;;;;;2600138;22;19938;-73
2020/12/27 05:49:30;;;;;;;;;;;8.90;86.40;;;;;;2588116;23;19919;-73
2020/12/27 05:50:35;;;;;;;;;;;8.70;86.70;;;;;;2588385;22;19920;-74
2020/12/27 05:51:44;;;;;;;;;;;8.70;87.60;;;;;;2600448;22;19926;-74
2020/12/27 05:52:46;;;;;;;;;;;8.80;87.80;;;;;;2600123;22;19920;-74
2020/12/27 05:53:49;;;;;;;;;;;8.80;87.50;;;;;;2600361;22;20367;-75
2020/12/27 05:54:55;;;;;;;;;;;8.80;87.40;;;;;;2601039;22;19988;-74
2020/12/27 05:55:59;;;;;;;;;;;8.80;86.90;;;;;;2601910;22;19926;-75
2020/12/27 05:57:03;;;;;;;;;;;8.90;87.00;;;;;;2588328;23;19926;-73
2020/12/27 05:58:09;;;;;;;;;;;8.80;86.80;;;;;;2576114;23;19920;-73
2020/12/27 05:59:19;;;;;;;;;;;8.90;86.70;;;;;;2589061;22;19927;-73
2020/12/27 06:00:21;;;;;;;;;;;8.90;86.60;;;;;;2599435;22;19919;-74
2020/12/27 06:01:25;;;;;;;;;;;9.00;86.40;;;;;;2600515;22;19938;-73
2020/12/27 06:02:38;;;;;;;;;;;9.00;86.10;;;;;;2600332;22;19931;-74
2020/12/27 06:03:54;;;;;;;;;;;8.90;86.00;;;;;;2599659;22;19919;-73
2020/12/27 06:05:09;;;;;;;;;;;9.00;85.70;;;;;;2587013;23;19927;-74
2020/12/27 06:06:32;;;;;;;;;;;9.00;85.80;;;;;;2590623;22;19919;-73
2020/12/27 06:07:35;;;;;;;;;;;9.10;85.50;;;;;;2599354;22;19926;-73
2020/12/27 06:08:51;;;;;;;;;;;9.10;85.50;;;;;;2599526;22;19919;-73